KAUG

Augusta State Airport

Augusta, Maine, USA
KAUG 230522Z 2306/2406 VRB03KT P6SM BKN100 FM231800 22007KT P6SM OVC050 FM232100 20009KT 3SM -RASN BR OVC025
Issued Valid From Valid To
Jan-23 @ 05:22 UTC
(3 hours ago)
Jan-23 @ 06:00 UTC
(2 hours ago)
Jan-24 @ 06:00 UTC
(in 22 hours)
Jan-23 @ 06:00 to Jan-23 @ 18:00
KAUG 230522Z 2306/2406 VRB03KT P6SM BKN100
Wind Visibility Clouds
Variable at 3 knots Greater than 6 miles
  • Broken at 10,000' AGL
From Jan-23 @ 18:00 to Jan-23 @ 21:00
FM231800 22007KT P6SM OVC050
Wind Visibility Clouds
220° at 7 knots Greater than 6 miles
  • Overcast at 5,000' AGL
From Jan-23 @ 21:00 to Jan-24 @ 06:00
FM232100 20009KT 3SM -RASN BR OVC025
Wind Visibility Clouds Conditions
200° at 9 knots 3 miles
  • Overcast at 2,500' AGL
  • Light Rain
  • Light Snow
  • Mist
KAUG 230522Z 2306/2406 VRB03KT P6SM BKN100 FM231800 22007KT P6SM OVC050 FM232100 20009KT 3SM -RASN BR OVC025
Issued Jan-23 @ 05:22 UTC
(3 hours ago)
Valid From Jan-23 @ 06:00 UTC
(2 hours ago)
Valid To Jan-24 @ 06:00 UTC
(in 22 hours)
Jan-23 @ 06:00 - Jan-23 @ 18:00
Wind Visibility
Variable at 3 knots Greater than 6 miles
Clouds
  • Broken at 10,000' AGL
From Jan-23 @ 18:00 - Jan-23 @ 21:00
Wind Visibility
220° at 7 knots Greater than 6 miles
Clouds
  • Overcast at 5,000' AGL
From Jan-23 @ 21:00 - Jan-24 @ 06:00
Wind Visibility
200° at 9 knots 3 miles
Clouds
  • Overcast at 2,500' AGL
Conditions
  • Light Rain
  • Light Snow
  • Mist